Hovedside
METAR-TAF:

METAR-TAF

Lufthavner :

Tambacounda, Senegal

breddegrad: 13-46N, lengdegrad: 013-41W, høyde over havet: 49 m

Gjeldene værobservasjon

Denne rapporten ble laget for 6 timer og 1 minutter siden, klokken 00:00 UTC
Vind 10 kt fra Vest-sørvest
Temperatur 34°C
Luftfuktighet 34%
Trykk 1008 hPa
Sikt: 8000 m

METAR: GOTT 190000Z 24010KT 8000 NSC 34/16 Q1008

Tid: 06:01 (06:01 UTC)


TAF: fraværende

Værobservasjoner og værvarsel for over 4000 flyplasser (METAR- og TAF-rapporter).

Tilgjengelige stasjoner er representert av de røde og gule prikkene på kartet.

Hold musepekeren over prikken for å se navnet på stasjonen.

Klikk så for å se værobservasjoner og -varsler.

For å forandre kartet kan du klikke på den grønne knappen med svart kryss for å zoome inn, på den grønne knappen med strek for å zoome ut, eller på de grønne pilene for å se tilstøtende kart.


METAR-TAF: